sensor_id;sensor_type;location;lat;lon;timestamp;P1;durP1;ratioP1;P2;durP2;ratioP2
6527;SDS011;64597;42.664;23.256;2023-06-22T00:01:58;5.72;;;4.43;;
6527;SDS011;64597;42.664;23.256;2023-06-22T00:04:24;4.82;;;4.30;;
6527;SDS011;64597;42.664;23.256;2023-06-22T00:06:50;6.18;;;4.40;;
6527;SDS011;64597;42.664;23.256;2023-06-22T00:09:17;6.10;;;4.32;;
6527;SDS011;64597;42.664;23.256;2023-06-22T00:11:42;7.20;;;4.65;;
6527;SDS011;64597;42.664;23.256;2023-06-22T00:14:08;6.10;;;4.45;;
6527;SDS011;64597;42.664;23.256;2023-06-22T00:16:33;7.07;;;5.07;;
6527;SDS011;64597;42.664;23.256;2023-06-22T00:18:59;5.72;;;4.38;;
6527;SDS011;64597;42.664;23.256;2023-06-22T00:21:28;7.18;;;4.85;;
6527;SDS011;64597;42.664;23.256;2023-06-22T00:23:55;5.68;;;4.15;;
6527;SDS011;64597;42.664;23.256;2023-06-22T00:26:22;9.57;;;5.38;;
6527;SDS011;64597;42.664;23.256;2023-06-22T00:28:48;5.97;;;4.70;;
6527;SDS011;64597;42.664;23.256;2023-06-22T00:31:13;5.97;;;4.75;;
6527;SDS011;64597;42.664;23.256;2023-06-22T00:33:39;6.68;;;4.80;;
6527;SDS011;64597;42.664;23.256;2023-06-22T00:36:05;7.97;;;5.15;;
6527;SDS011;64597;42.664;23.256;2023-06-22T00:38:32;5.72;;;4.68;;
6527;SDS011;64597;42.664;23.256;2023-06-22T00:40:58;5.80;;;4.60;;
6527;SDS011;64597;42.664;23.256;2023-06-22T00:43:23;8.23;;;5.07;;
6527;SDS011;64597;42.664;23.256;2023-06-22T00:45:49;6.93;;;4.88;;
6527;SDS011;64597;42.664;23.256;2023-06-22T00:48:14;8.75;;;5.70;;
6527;SDS011;64597;42.664;23.256;2023-06-22T00:50:40;8.90;;;4.80;;
6527;SDS011;64597;42.664;23.256;2023-06-22T00:53:07;6.07;;;4.78;;
6527;SDS011;64597;42.664;23.256;2023-06-22T00:55:51;6.82;;;5.10;;
6527;SDS011;64597;42.664;23.256;2023-06-22T00:58:17;7.78;;;4.57;;
6527;SDS011;64597;42.664;23.256;2023-06-22T01:00:47;6.68;;;5.05;;
6527;SDS011;64597;42.664;23.256;2023-06-22T01:03:12;9.13;;;5.50;;
6527;SDS011;64597;42.664;23.256;2023-06-22T01:05:38;9.85;;;5.80;;
6527;SDS011;64597;42.664;23.256;2023-06-22T01:11:08;8.02;;;5.47;;
6527;SDS011;64597;42.664;23.256;2023-06-22T01:13:45;8.85;;;5.07;;
6527;SDS011;64597;42.664;23.256;2023-06-22T01:16:16;5.93;;;4.50;;
6527;SDS011;64597;42.664;23.256;2023-06-22T01:18:45;7.28;;;5.40;;
6527;SDS011;64597;42.664;23.256;2023-06-22T01:21:16;8.55;;;5.13;;
6527;SDS011;64597;42.664;23.256;2023-06-22T01:26:21;9.20;;;5.30;;
6527;SDS011;64597;42.664;23.256;2023-06-22T01:28:55;6.47;;;4.60;;
6527;SDS011;64597;42.664;23.256;2023-06-22T01:31:25;5.78;;;4.68;;
6527;SDS011;64597;42.664;23.256;2023-06-22T01:33:55;5.78;;;4.57;;
6527;SDS011;64597;42.664;23.256;2023-06-22T01:36:23;7.35;;;4.60;;
6527;SDS011;64597;42.664;23.256;2023-06-22T01:38:50;6.63;;;4.43;;
6527;SDS011;64597;42.664;23.256;2023-06-22T01:41:18;7.93;;;4.78;;
6527;SDS011;64597;42.664;23.256;2023-06-22T01:43:45;7.65;;;4.25;;
6527;SDS011;64597;42.664;23.256;2023-06-22T01:46:10;6.70;;;3.92;;
6527;SDS011;64597;42.664;23.256;2023-06-22T01:48:37;10.75;;;5.72;;
6527;SDS011;64597;42.664;23.256;2023-06-22T01:51:04;8.40;;;5.00;;
6527;SDS011;64597;42.664;23.256;2023-06-22T01:53:30;7.72;;;5.18;;
6527;SDS011;64597;42.664;23.256;2023-06-22T01:55:56;8.40;;;5.60;;
6527;SDS011;64597;42.664;23.256;2023-06-22T01:58:23;8.00;;;5.30;;
6527;SDS011;64597;42.664;23.256;2023-06-22T02:01:00;8.48;;;4.75;;
6527;SDS011;64597;42.664;23.256;2023-06-22T02:03:36;7.38;;;4.70;;
6527;SDS011;64597;42.664;23.256;2023-06-22T02:06:10;7.70;;;5.18;;
6527;SDS011;64597;42.664;23.256;2023-06-22T02:08:41;8.75;;;5.07;;
6527;SDS011;64597;42.664;23.256;2023-06-22T02:11:13;7.47;;;5.65;;
6527;SDS011;64597;42.664;23.256;2023-06-22T02:13:41;9.20;;;5.63;;
6527;SDS011;64597;42.664;23.256;2023-06-22T02:16:09;9.10;;;4.93;;
6527;SDS011;64597;42.664;23.256;2023-06-22T02:18:36;9.07;;;5.68;;
6527;SDS011;64597;42.664;23.256;2023-06-22T02:21:02;9.00;;;5.97;;
6527;SDS011;64597;42.664;23.256;2023-06-22T02:23:28;8.88;;;5.38;;
6527;SDS011;64597;42.664;23.256;2023-06-22T02:25:53;6.03;;;4.88;;
6527;SDS011;64597;42.664;23.256;2023-06-22T02:28:19;8.20;;;5.03;;
6527;SDS011;64597;42.664;23.256;2023-06-22T02:30:44;6.07;;;4.43;;
6527;SDS011;64597;42.664;23.256;2023-06-22T02:33:10;6.28;;;4.45;;
6527;SDS011;64597;42.664;23.256;2023-06-22T02:35:35;7.10;;;4.90;;
6527;SDS011;64597;42.664;23.256;2023-06-22T02:38:01;6.43;;;5.28;;
6527;SDS011;64597;42.664;23.256;2023-06-22T02:40:28;6.50;;;4.65;;
6527;SDS011;64597;42.664;23.256;2023-06-22T02:42:58;7.68;;;4.45;;
6527;SDS011;64597;42.664;23.256;2023-06-22T02:45:26;7.25;;;5.30;;
6527;SDS011;64597;42.664;23.256;2023-06-22T02:47:52;7.15;;;4.78;;
6527;SDS011;64597;42.664;23.256;2023-06-22T02:50:17;6.63;;;4.97;;
6527;SDS011;64597;42.664;23.256;2023-06-22T02:52:43;5.72;;;4.90;;
6527;SDS011;64597;42.664;23.256;2023-06-22T02:55:08;8.35;;;4.85;;
6527;SDS011;64597;42.664;23.256;2023-06-22T02:57:34;7.97;;;5.85;;
6527;SDS011;64597;42.664;23.256;2023-06-22T03:00:01;8.95;;;5.43;;
6527;SDS011;64597;42.664;23.256;2023-06-22T03:02:31;8.50;;;5.13;;
6527;SDS011;64597;42.664;23.256;2023-06-22T03:04:57;8.13;;;5.30;;
6527;SDS011;64597;42.664;23.256;2023-06-22T03:07:22;8.52;;;5.32;;
6527;SDS011;64597;42.664;23.256;2023-06-22T03:09:48;9.85;;;5.60;;
6527;SDS011;64597;42.664;23.256;2023-06-22T03:12:13;8.93;;;6.03;;
6527;SDS011;64597;42.664;23.256;2023-06-22T03:14:39;10.27;;;5.70;;
6527;SDS011;64597;42.664;23.256;2023-06-22T03:17:04;12.35;;;6.07;;
6527;SDS011;64597;42.664;23.256;2023-06-22T03:19:31;10.27;;;6.05;;
6527;SDS011;64597;42.664;23.256;2023-06-22T03:22:00;6.85;;;5.32;;
6527;SDS011;64597;42.664;23.256;2023-06-22T03:24:25;7.65;;;5.45;;
6527;SDS011;64597;42.664;23.256;2023-06-22T03:29:19;9.38;;;6.15;;
6527;SDS011;64597;42.664;23.256;2023-06-22T03:31:45;8.77;;;5.50;;
6527;SDS011;64597;42.664;23.256;2023-06-22T03:34:10;8.20;;;5.68;;
6527;SDS011;64597;42.664;23.256;2023-06-22T03:36:36;11.93;;;7.88;;
6527;SDS011;64597;42.664;23.256;2023-06-22T03:39:01;13.70;;;7.35;;
6527;SDS011;64597;42.664;23.256;2023-06-22T03:41:27;8.20;;;5.35;;
6527;SDS011;64597;42.664;23.256;2023-06-22T03:43:52;9.48;;;5.50;;
6527;SDS011;64597;42.664;23.256;2023-06-22T03:46:18;7.10;;;5.03;;
6527;SDS011;64597;42.664;23.256;2023-06-22T03:48:44;7.63;;;5.22;;
6527;SDS011;64597;42.664;23.256;2023-06-22T03:51:10;11.15;;;5.20;;
6527;SDS011;64597;42.664;23.256;2023-06-22T03:53:35;12.52;;;5.57;;
6527;SDS011;64597;42.664;23.256;2023-06-22T03:56:01;7.32;;;5.28;;
6527;SDS011;64597;42.664;23.256;2023-06-22T03:58:26;8.63;;;5.18;;
6527;SDS011;64597;42.664;23.256;2023-06-22T04:00:53;11.85;;;5.93;;
6527;SDS011;64597;42.664;23.256;2023-06-22T04:03:18;8.50;;;6.05;;
6527;SDS011;64597;42.664;23.256;2023-06-22T04:05:44;9.65;;;5.88;;
6527;SDS011;64597;42.664;23.256;2023-06-22T04:08:10;7.53;;;5.32;;
6527;SDS011;64597;42.664;23.256;2023-06-22T04:10:35;7.43;;;5.22;;
6527;SDS011;64597;42.664;23.256;2023-06-22T04:13:01;7.57;;;5.13;;
6527;SDS011;64597;42.664;23.256;2023-06-22T04:15:27;7.78;;;5.40;;
6527;SDS011;64597;42.664;23.256;2023-06-22T04:17:54;6.90;;;6.00;;
6527;SDS011;64597;42.664;23.256;2023-06-22T04:20:21;8.63;;;6.20;;
6527;SDS011;64597;42.664;23.256;2023-06-22T04:22:47;7.15;;;6.07;;
6527;SDS011;64597;42.664;23.256;2023-06-22T04:25:12;8.85;;;6.03;;
6527;SDS011;64597;42.664;23.256;2023-06-22T04:27:38;8.60;;;6.13;;
6527;SDS011;64597;42.664;23.256;2023-06-22T04:30:07;9.32;;;6.40;;
6527;SDS011;64597;42.664;23.256;2023-06-22T04:32:33;8.02;;;5.90;;
6527;SDS011;64597;42.664;23.256;2023-06-22T04:35:02;8.10;;;5.70;;
6527;SDS011;64597;42.664;23.256;2023-06-22T04:37:30;8.75;;;7.13;;
6527;SDS011;64597;42.664;23.256;2023-06-22T04:39:56;10.23;;;7.07;;
6527;SDS011;64597;42.664;23.256;2023-06-22T04:42:22;9.77;;;6.85;;
6527;SDS011;64597;42.664;23.256;2023-06-22T04:44:47;11.25;;;6.22;;
6527;SDS011;64597;42.664;23.256;2023-06-22T04:47:12;11.13;;;6.90;;
6527;SDS011;64597;42.664;23.256;2023-06-22T04:49:38;13.75;;;6.95;;
6527;SDS011;64597;42.664;23.256;2023-06-22T04:52:06;11.00;;;6.80;;
6527;SDS011;64597;42.664;23.256;2023-06-22T04:54:33;10.68;;;6.55;;
6527;SDS011;64597;42.664;23.256;2023-06-22T04:57:01;11.63;;;7.28;;
6527;SDS011;64597;42.664;23.256;2023-06-22T04:59:29;13.48;;;7.50;;
6527;SDS011;64597;42.664;23.256;2023-06-22T05:04:21;12.45;;;7.32;;
6527;SDS011;64597;42.664;23.256;2023-06-22T05:06:51;13.02;;;7.65;;
6527;SDS011;64597;42.664;23.256;2023-06-22T05:09:17;9.57;;;7.07;;
6527;SDS011;64597;42.664;23.256;2023-06-22T05:11:46;14.02;;;7.55;;
6527;SDS011;64597;42.664;23.256;2023-06-22T05:14:12;9.90;;;7.43;;
6527;SDS011;64597;42.664;23.256;2023-06-22T05:16:38;11.68;;;7.32;;
6527;SDS011;64597;42.664;23.256;2023-06-22T05:19:04;11.52;;;7.47;;
6527;SDS011;64597;42.664;23.256;2023-06-22T05:21:30;13.93;;;7.50;;
6527;SDS011;64597;42.664;23.256;2023-06-22T05:23:56;14.05;;;8.32;;
6527;SDS011;64597;42.664;23.256;2023-06-22T05:26:27;13.40;;;7.47;;
6527;SDS011;64597;42.664;23.256;2023-06-22T05:28:53;11.27;;;7.97;;
6527;SDS011;64597;42.664;23.256;2023-06-22T05:31:18;15.15;;;8.15;;
6527;SDS011;64597;42.664;23.256;2023-06-22T05:33:45;11.57;;;7.97;;
6527;SDS011;64597;42.664;23.256;2023-06-22T05:36:11;14.05;;;8.35;;
6527;SDS011;64597;42.664;23.256;2023-06-22T05:38:38;17.75;;;9.38;;
6527;SDS011;64597;42.664;23.256;2023-06-22T05:41:04;13.70;;;7.75;;
6527;SDS011;64597;42.664;23.256;2023-06-22T05:43:30;12.80;;;8.82;;
6527;SDS011;64597;42.664;23.256;2023-06-22T05:45:56;9.93;;;7.28;;
6527;SDS011;64597;42.664;23.256;2023-06-22T05:48:21;11.63;;;8.23;;
6527;SDS011;64597;42.664;23.256;2023-06-22T05:50:47;10.38;;;8.02;;
6527;SDS011;64597;42.664;23.256;2023-06-22T05:53:12;10.52;;;8.88;;
6527;SDS011;64597;42.664;23.256;2023-06-22T05:55:38;11.13;;;8.13;;
6527;SDS011;64597;42.664;23.256;2023-06-22T05:58:04;12.70;;;8.93;;
6527;SDS011;64597;42.664;23.256;2023-06-22T06:00:29;10.98;;;7.75;;
6527;SDS011;64597;42.664;23.256;2023-06-22T06:02:55;12.13;;;8.00;;
6527;SDS011;64597;42.664;23.256;2023-06-22T06:05:21;11.98;;;7.93;;
6527;SDS011;64597;42.664;23.256;2023-06-22T06:07:48;12.10;;;7.40;;
6527;SDS011;64597;42.664;23.256;2023-06-22T06:10:13;9.93;;;7.30;;
6527;SDS011;64597;42.664;23.256;2023-06-22T06:12:39;11.15;;;8.18;;
6527;SDS011;64597;42.664;23.256;2023-06-22T06:15:05;10.52;;;7.95;;
6527;SDS011;64597;42.664;23.256;2023-06-22T06:17:31;10.90;;;7.65;;
6527;SDS011;64597;42.664;23.256;2023-06-22T06:19:56;13.50;;;8.52;;
6527;SDS011;64597;42.664;23.256;2023-06-22T06:22:23;9.70;;;7.63;;
6527;SDS011;64597;42.664;23.256;2023-06-22T06:24:49;11.63;;;8.68;;
6527;SDS011;64597;42.664;23.256;2023-06-22T06:27:15;11.52;;;7.43;;
6527;SDS011;64597;42.664;23.256;2023-06-22T06:29:43;13.48;;;8.57;;
6527;SDS011;64597;42.664;23.256;2023-06-22T06:32:10;14.75;;;8.27;;
6527;SDS011;64597;42.664;23.256;2023-06-22T06:34:36;11.85;;;7.60;;
6527;SDS011;64597;42.664;23.256;2023-06-22T06:37:01;14.60;;;8.25;;
6527;SDS011;64597;42.664;23.256;2023-06-22T06:39:27;10.90;;;8.15;;
6527;SDS011;64597;42.664;23.256;2023-06-22T06:41:53;14.80;;;9.32;;
6527;SDS011;64597;42.664;23.256;2023-06-22T06:44:18;13.25;;;7.57;;
6527;SDS011;64597;42.664;23.256;2023-06-22T06:46:43;12.75;;;8.38;;
6527;SDS011;64597;42.664;23.256;2023-06-22T06:49:09;11.77;;;8.20;;
6527;SDS011;64597;42.664;23.256;2023-06-22T06:51:34;12.93;;;9.82;;
6527;SDS011;64597;42.664;23.256;2023-06-22T06:54:00;16.02;;;8.85;;
6527;SDS011;64597;42.664;23.256;2023-06-22T06:56:26;12.70;;;8.27;;
6527;SDS011;64597;42.664;23.256;2023-06-22T06:58:52;12.60;;;8.00;;
6527;SDS011;64597;42.664;23.256;2023-06-22T07:01:17;11.35;;;8.32;;
6527;SDS011;64597;42.664;23.256;2023-06-22T07:03:44;11.73;;;7.95;;
6527;SDS011;64597;42.664;23.256;2023-06-22T07:06:10;9.85;;;7.65;;
6527;SDS011;64597;42.664;23.256;2023-06-22T07:08:35;10.23;;;8.10;;
6527;SDS011;64597;42.664;23.256;2023-06-22T07:11:01;9.88;;;8.25;;
6527;SDS011;64597;42.664;23.256;2023-06-22T07:13:27;14.57;;;8.82;;
6527;SDS011;64597;42.664;23.256;2023-06-22T07:15:52;12.75;;;7.90;;
6527;SDS011;64597;42.664;23.256;2023-06-22T07:18:18;9.52;;;7.47;;
6527;SDS011;64597;42.664;23.256;2023-06-22T07:20:43;11.07;;;7.28;;
6527;SDS011;64597;42.664;23.256;2023-06-22T07:23:09;8.68;;;7.75;;
6527;SDS011;64597;42.664;23.256;2023-06-22T07:25:35;11.90;;;8.13;;
6527;SDS011;64597;42.664;23.256;2023-06-22T07:28:04;10.73;;;8.35;;
6527;SDS011;64597;42.664;23.256;2023-06-22T07:30:32;11.80;;;8.32;;
6527;SDS011;64597;42.664;23.256;2023-06-22T07:32:58;10.23;;;8.55;;
6527;SDS011;64597;42.664;23.256;2023-06-22T07:35:28;10.63;;;8.23;;
6527;SDS011;64597;42.664;23.256;2023-06-22T07:37:54;10.65;;;8.32;;
6527;SDS011;64597;42.664;23.256;2023-06-22T07:40:20;12.05;;;8.43;;
6527;SDS011;64597;42.664;23.256;2023-06-22T07:42:47;12.15;;;8.52;;
6527;SDS011;64597;42.664;23.256;2023-06-22T07:45:17;11.77;;;8.27;;
6527;SDS011;64597;42.664;23.256;2023-06-22T07:47:43;11.23;;;9.80;;
6527;SDS011;64597;42.664;23.256;2023-06-22T07:50:08;9.63;;;8.15;;
6527;SDS011;64597;42.664;23.256;2023-06-22T07:52:35;10.45;;;8.43;;
6527;SDS011;64597;42.664;23.256;2023-06-22T07:55:00;10.80;;;9.15;;
6527;SDS011;64597;42.664;23.256;2023-06-22T07:57:27;10.88;;;8.80;;
6527;SDS011;64597;42.664;23.256;2023-06-22T07:59:58;12.10;;;9.60;;
6527;SDS011;64597;42.664;23.256;2023-06-22T08:02:29;11.77;;;9.45;;
6527;SDS011;64597;42.664;23.256;2023-06-22T08:04:54;10.95;;;9.13;;
6527;SDS011;64597;42.664;23.256;2023-06-22T08:07:20;11.00;;;8.90;;
6527;SDS011;64597;42.664;23.256;2023-06-22T08:09:46;11.48;;;8.93;;
6527;SDS011;64597;42.664;23.256;2023-06-22T08:12:14;10.60;;;9.00;;
6527;SDS011;64597;42.664;23.256;2023-06-22T08:14:41;12.85;;;9.57;;
6527;SDS011;64597;42.664;23.256;2023-06-22T08:17:07;10.60;;;8.60;;
6527;SDS011;64597;42.664;23.256;2023-06-22T08:19:32;10.15;;;8.90;;
6527;SDS011;64597;42.664;23.256;2023-06-22T08:21:58;11.88;;;8.55;;
6527;SDS011;64597;42.664;23.256;2023-06-22T08:24:23;9.27;;;7.85;;
6527;SDS011;64597;42.664;23.256;2023-06-22T08:26:51;11.32;;;9.35;;
6527;SDS011;64597;42.664;23.256;2023-06-22T08:29:16;9.82;;;8.85;;
6527;SDS011;64597;42.664;23.256;2023-06-22T08:31:42;9.73;;;8.65;;
6527;SDS011;64597;42.664;23.256;2023-06-22T08:34:07;9.07;;;8.15;;
6527;SDS011;64597;42.664;23.256;2023-06-22T08:36:33;10.80;;;8.15;;
6527;SDS011;64597;42.664;23.256;2023-06-22T08:39:08;10.10;;;9.05;;
6527;SDS011;64597;42.664;23.256;2023-06-22T08:41:33;9.30;;;8.27;;
6527;SDS011;64597;42.664;23.256;2023-06-22T08:43:59;11.95;;;8.77;;
6527;SDS011;64597;42.664;23.256;2023-06-22T08:46:24;11.93;;;8.48;;
6527;SDS011;64597;42.664;23.256;2023-06-22T08:48:55;13.75;;;8.40;;
6527;SDS011;64597;42.664;23.256;2023-06-22T08:53:48;11.65;;;7.18;;
6527;SDS011;64597;42.664;23.256;2023-06-22T08:56:13;8.57;;;7.75;;
6527;SDS011;64597;42.664;23.256;2023-06-22T08:58:38;8.82;;;7.57;;
6527;SDS011;64597;42.664;23.256;2023-06-22T09:01:04;9.98;;;7.40;;
6527;SDS011;64597;42.664;23.256;2023-06-22T09:03:29;12.70;;;7.45;;
6527;SDS011;64597;42.664;23.256;2023-06-22T09:05:55;10.05;;;8.00;;
6527;SDS011;64597;42.664;23.256;2023-06-22T09:08:21;8.60;;;7.80;;
6527;SDS011;64597;42.664;23.256;2023-06-22T09:10:46;9.40;;;7.70;;
6527;SDS011;64597;42.664;23.256;2023-06-22T09:13:12;8.18;;;7.38;;
6527;SDS011;64597;42.664;23.256;2023-06-22T09:15:37;7.40;;;6.65;;
6527;SDS011;64597;42.664;23.256;2023-06-22T09:18:03;10.40;;;6.93;;
6527;SDS011;64597;42.664;23.256;2023-06-22T09:20:29;8.40;;;7.10;;
6527;SDS011;64597;42.664;23.256;2023-06-22T09:22:54;9.02;;;7.15;;
6527;SDS011;64597;42.664;23.256;2023-06-22T09:25:20;9.20;;;7.88;;
6527;SDS011;64597;42.664;23.256;2023-06-22T09:27:46;7.65;;;6.95;;
6527;SDS011;64597;42.664;23.256;2023-06-22T09:30:12;8.05;;;7.25;;
6527;SDS011;64597;42.664;23.256;2023-06-22T09:32:38;8.10;;;7.30;;
6527;SDS011;64597;42.664;23.256;2023-06-22T09:35:04;8.40;;;7.45;;
6527;SDS011;64597;42.664;23.256;2023-06-22T09:37:35;9.82;;;7.95;;
6527;SDS011;64597;42.664;23.256;2023-06-22T09:40:01;9.35;;;6.82;;
6527;SDS011;64597;42.664;23.256;2023-06-22T09:42:32;7.55;;;6.75;;
6527;SDS011;64597;42.664;23.256;2023-06-22T09:44:57;8.40;;;7.00;;
6527;SDS011;64597;42.664;23.256;2023-06-22T09:47:23;7.60;;;6.68;;
6527;SDS011;64597;42.664;23.256;2023-06-22T09:49:48;8.70;;;6.50;;
6527;SDS011;64597;42.664;23.256;2023-06-22T09:52:14;7.32;;;6.63;;
6527;SDS011;64597;42.664;23.256;2023-06-22T09:54:39;10.68;;;6.85;;
6527;SDS011;64597;42.664;23.256;2023-06-22T09:57:05;7.13;;;6.43;;
6527;SDS011;64597;42.664;23.256;2023-06-22T09:59:30;10.05;;;7.60;;
6527;SDS011;64597;42.664;23.256;2023-06-22T10:01:56;7.07;;;6.38;;
6527;SDS011;64597;42.664;23.256;2023-06-22T10:04:21;6.57;;;5.97;;
6527;SDS011;64597;42.664;23.256;2023-06-22T10:06:47;6.80;;;6.20;;
6527;SDS011;64597;42.664;23.256;2023-06-22T10:09:12;6.97;;;6.28;;
6527;SDS011;64597;42.664;23.256;2023-06-22T10:11:38;7.45;;;6.72;;
6527;SDS011;64597;42.664;23.256;2023-06-22T10:14:03;6.72;;;6.13;;
6527;SDS011;64597;42.664;23.256;2023-06-22T10:16:32;7.35;;;6.65;;
6527;SDS011;64597;42.664;23.256;2023-06-22T10:18:58;10.70;;;7.68;;
6527;SDS011;64597;42.664;23.256;2023-06-22T10:21:23;8.75;;;7.10;;
6527;SDS011;64597;42.664;23.256;2023-06-22T10:23:49;9.98;;;7.40;;
6527;SDS011;64597;42.664;23.256;2023-06-22T10:26:15;7.47;;;6.70;;
6527;SDS011;64597;42.664;23.256;2023-06-22T10:28:40;7.45;;;6.63;;
6527;SDS011;64597;42.664;23.256;2023-06-22T10:31:06;10.13;;;7.18;;
6527;SDS011;64597;42.664;23.256;2023-06-22T10:33:31;7.53;;;6.20;;
6527;SDS011;64597;42.664;23.256;2023-06-22T10:35:57;7.35;;;6.65;;
6527;SDS011;64597;42.664;23.256;2023-06-22T10:38:22;8.13;;;7.07;;
6527;SDS011;64597;42.664;23.256;2023-06-22T10:40:48;7.97;;;7.13;;
6527;SDS011;64597;42.664;23.256;2023-06-22T10:43:15;7.05;;;6.40;;
6527;SDS011;64597;42.664;23.256;2023-06-22T10:45:40;7.15;;;6.45;;
6527;SDS011;64597;42.664;23.256;2023-06-22T10:48:05;8.88;;;7.30;;
6527;SDS011;64597;42.664;23.256;2023-06-22T10:50:32;7.70;;;6.93;;
6527;SDS011;64597;42.664;23.256;2023-06-22T10:52:57;7.82;;;7.13;;
6527;SDS011;64597;42.664;23.256;2023-06-22T10:55:22;8.93;;;7.18;;
6527;SDS011;64597;42.664;23.256;2023-06-22T10:57:48;8.05;;;7.25;;
6527;SDS011;64597;42.664;23.256;2023-06-22T11:00:15;9.15;;;6.95;;
6527;SDS011;64597;42.664;23.256;2023-06-22T11:02:40;9.07;;;6.72;;
6527;SDS011;64597;42.664;23.256;2023-06-22T11:05:06;8.38;;;7.47;;
6527;SDS011;64597;42.664;23.256;2023-06-22T11:07:32;7.95;;;7.18;;
6527;SDS011;64597;42.664;23.256;2023-06-22T11:09:58;8.38;;;7.28;;
6527;SDS011;64597;42.664;23.256;2023-06-22T11:12:23;11.05;;;7.45;;
6527;SDS011;64597;42.664;23.256;2023-06-22T11:14:49;8.68;;;7.60;;
6527;SDS011;64597;42.664;23.256;2023-06-22T11:17:18;7.43;;;6.63;;
6527;SDS011;64597;42.664;23.256;2023-06-22T11:19:44;9.82;;;6.85;;
6527;SDS011;64597;42.664;23.256;2023-06-22T11:22:10;7.40;;;6.63;;
6527;SDS011;64597;42.664;23.256;2023-06-22T11:24:35;8.80;;;7.50;;
6527;SDS011;64597;42.664;23.256;2023-06-22T11:27:00;11.93;;;7.22;;
6527;SDS011;64597;42.664;23.256;2023-06-22T11:29:26;10.50;;;7.38;;
6527;SDS011;64597;42.664;23.256;2023-06-22T11:31:51;11.32;;;6.95;;
6527;SDS011;64597;42.664;23.256;2023-06-22T11:34:17;8.27;;;6.80;;
6527;SDS011;64597;42.664;23.256;2023-06-22T11:36:44;9.45;;;7.47;;
6527;SDS011;64597;42.664;23.256;2023-06-22T11:39:10;7.43;;;6.57;;
6527;SDS011;64597;42.664;23.256;2023-06-22T11:41:36;8.25;;;7.28;;
6527;SDS011;64597;42.664;23.256;2023-06-22T11:44:01;8.15;;;7.35;;
6527;SDS011;64597;42.664;23.256;2023-06-22T11:46:26;9.27;;;7.07;;
6527;SDS011;64597;42.664;23.256;2023-06-22T11:48:52;8.90;;;7.88;;
6527;SDS011;64597;42.664;23.256;2023-06-22T11:51:17;11.23;;;8.23;;
6527;SDS011;64597;42.664;23.256;2023-06-22T11:53:43;9.70;;;8.70;;
6527;SDS011;64597;42.664;23.256;2023-06-22T11:56:08;9.57;;;8.60;;
6527;SDS011;64597;42.664;23.256;2023-06-22T11:58:34;10.35;;;8.25;;
6527;SDS011;64597;42.664;23.256;2023-06-22T12:00:59;9.75;;;8.18;;
6527;SDS011;64597;42.664;23.256;2023-06-22T12:03:24;9.10;;;8.18;;
6527;SDS011;64597;42.664;23.256;2023-06-22T12:05:50;11.07;;;8.65;;
6527;SDS011;64597;42.664;23.256;2023-06-22T12:08:19;9.52;;;8.57;;
6527;SDS011;64597;42.664;23.256;2023-06-22T12:10:44;10.07;;;8.20;;
6527;SDS011;64597;42.664;23.256;2023-06-22T12:13:10;8.80;;;7.97;;
6527;SDS011;64597;42.664;23.256;2023-06-22T12:15:35;9.60;;;8.57;;
6527;SDS011;64597;42.664;23.256;2023-06-22T12:18:01;10.13;;;8.23;;
6527;SDS011;64597;42.664;23.256;2023-06-22T12:20:26;9.05;;;7.88;;
6527;SDS011;64597;42.664;23.256;2023-06-22T12:22:52;12.38;;;8.13;;
6527;SDS011;64597;42.664;23.256;2023-06-22T12:25:19;8.43;;;7.50;;
6527;SDS011;64597;42.664;23.256;2023-06-22T12:27:44;9.15;;;7.47;;
6527;SDS011;64597;42.664;23.256;2023-06-22T12:30:10;8.63;;;7.15;;
6527;SDS011;64597;42.664;23.256;2023-06-22T12:32:35;9.90;;;8.23;;
6527;SDS011;64597;42.664;23.256;2023-06-22T12:35:00;8.25;;;6.53;;
6527;SDS011;64597;42.664;23.256;2023-06-22T12:37:26;10.15;;;7.00;;
6527;SDS011;64597;42.664;23.256;2023-06-22T12:39:53;9.80;;;7.18;;
6527;SDS011;64597;42.664;23.256;2023-06-22T12:42:19;13.23;;;6.57;;
6527;SDS011;64597;42.664;23.256;2023-06-22T12:44:46;10.75;;;7.03;;
6527;SDS011;64597;42.664;23.256;2023-06-22T12:47:11;12.95;;;6.70;;
6527;SDS011;64597;42.664;23.256;2023-06-22T12:49:38;11.27;;;7.40;;
6527;SDS011;64597;42.664;23.256;2023-06-22T12:52:08;11.55;;;6.97;;
6527;SDS011;64597;42.664;23.256;2023-06-22T12:54:35;13.70;;;7.80;;
6527;SDS011;64597;42.664;23.256;2023-06-22T12:57:01;8.98;;;6.45;;
6527;SDS011;64597;42.664;23.256;2023-06-22T12:59:26;11.57;;;5.95;;
6527;SDS011;64597;42.664;23.256;2023-06-22T13:01:52;10.10;;;6.63;;
6527;SDS011;64597;42.664;23.256;2023-06-22T13:04:18;9.77;;;6.15;;
6527;SDS011;64597;42.664;23.256;2023-06-22T13:06:44;9.75;;;6.40;;
6527;SDS011;64597;42.664;23.256;2023-06-22T13:09:13;10.13;;;7.20;;
6527;SDS011;64597;42.664;23.256;2023-06-22T13:11:39;12.52;;;6.70;;
6527;SDS011;64597;42.664;23.256;2023-06-22T13:14:05;8.77;;;6.45;;
6527;SDS011;64597;42.664;23.256;2023-06-22T13:16:30;9.07;;;5.80;;
6527;SDS011;64597;42.664;23.256;2023-06-22T13:18:56;8.93;;;5.70;;
6527;SDS011;64597;42.664;23.256;2023-06-22T13:21:21;8.32;;;5.47;;
6527;SDS011;64597;42.664;23.256;2023-06-22T13:23:47;9.25;;;5.63;;
6527;SDS011;64597;42.664;23.256;2023-06-22T13:26:12;5.95;;;5.22;;
6527;SDS011;64597;42.664;23.256;2023-06-22T13:28:38;9.52;;;5.35;;
6527;SDS011;64597;42.664;23.256;2023-06-22T13:31:03;9.27;;;5.63;;
6527;SDS011;64597;42.664;23.256;2023-06-22T13:33:29;8.07;;;5.72;;
6527;SDS011;64597;42.664;23.256;2023-06-22T13:35:54;9.45;;;6.20;;
6527;SDS011;64597;42.664;23.256;2023-06-22T13:38:20;6.28;;;5.03;;
6527;SDS011;64597;42.664;23.256;2023-06-22T13:40:45;8.10;;;5.50;;
6527;SDS011;64597;42.664;23.256;2023-06-22T13:43:12;8.48;;;5.63;;
6527;SDS011;64597;42.664;23.256;2023-06-22T13:45:38;8.40;;;5.82;;
6527;SDS011;64597;42.664;23.256;2023-06-22T13:48:03;7.60;;;5.90;;
6527;SDS011;64597;42.664;23.256;2023-06-22T13:50:29;10.95;;;5.95;;
6527;SDS011;64597;42.664;23.256;2023-06-22T13:52:55;6.60;;;5.50;;
6527;SDS011;64597;42.664;23.256;2023-06-22T13:55:21;9.85;;;6.28;;
6527;SDS011;64597;42.664;23.256;2023-06-22T13:57:48;7.78;;;5.82;;
6527;SDS011;64597;42.664;23.256;2023-06-22T14:00:13;8.20;;;5.50;;
6527;SDS011;64597;42.664;23.256;2023-06-22T14:02:39;7.38;;;5.40;;
6527;SDS011;64597;42.664;23.256;2023-06-22T14:05:05;8.90;;;5.85;;
6527;SDS011;64597;42.664;23.256;2023-06-22T14:07:31;10.57;;;6.30;;
6527;SDS011;64597;42.664;23.256;2023-06-22T14:09:57;7.45;;;5.68;;
6527;SDS011;64597;42.664;23.256;2023-06-22T14:12:22;7.47;;;5.25;;
6527;SDS011;64597;42.664;23.256;2023-06-22T14:14:48;9.38;;;5.75;;
6527;SDS011;64597;42.664;23.256;2023-06-22T14:17:13;6.88;;;4.88;;
6527;SDS011;64597;42.664;23.256;2023-06-22T14:19:39;9.27;;;5.47;;
6527;SDS011;64597;42.664;23.256;2023-06-22T14:22:05;7.55;;;5.55;;
6527;SDS011;64597;42.664;23.256;2023-06-22T14:24:30;11.43;;;5.72;;
6527;SDS011;64597;42.664;23.256;2023-06-22T14:26:56;7.10;;;5.70;;
6527;SDS011;64597;42.664;23.256;2023-06-22T14:29:21;7.90;;;5.63;;
6527;SDS011;64597;42.664;23.256;2023-06-22T14:31:47;8.02;;;5.25;;
6527;SDS011;64597;42.664;23.256;2023-06-22T14:34:14;7.57;;;5.28;;
6527;SDS011;64597;42.664;23.256;2023-06-22T14:36:40;6.50;;;5.75;;
6527;SDS011;64597;42.664;23.256;2023-06-22T14:39:07;9.80;;;7.03;;
6527;SDS011;64597;42.664;23.256;2023-06-22T14:41:33;7.03;;;6.32;;
6527;SDS011;64597;42.664;23.256;2023-06-22T14:43:58;9.30;;;6.10;;
6527;SDS011;64597;42.664;23.256;2023-06-22T14:46:24;10.40;;;6.13;;
6527;SDS011;64597;42.664;23.256;2023-06-22T14:48:49;7.70;;;6.15;;
6527;SDS011;64597;42.664;23.256;2023-06-22T14:51:15;7.45;;;5.72;;